Time;durP1;ratioP1;P1;durP2;ratioP2;P2;SDS_P1;SDS_P2;PMS_P1;PMS_P2;Temp;Humidity;BMP_temperature;BMP_pressure;BME280_temperature;BME280_humidity;BME280_pressure;Samples;Min_cycle;Max_cycle;Signal;HPM_P1;HPM_P2
2021/12/05 00:18:43;;;;;;;4.88;3.60;;;;;;;;;;5009015;28;20354;-78
2021/12/05 00:23:58;;;;;;;4.75;3.75;;;;;;;;;;5004016;28;20279;-78
2021/12/05 00:26:27;;;;;;;4.40;3.50;;;;;;;;;;5021651;27;20239;-78
2021/12/05 00:29:17;;;;;;;4.20;3.80;;;;;;;;;;5028778;28;20196;-77
2021/12/05 00:35:03;;;;;;;5.15;3.10;;;;;;;;;;5014136;28;20196;-77
2021/12/05 00:40:41;;;;;;;6.00;3.03;;;;;;;;;;5021491;28;20366;-77
2021/12/05 00:43:30;;;;;;;3.58;3.03;;;;;;;;;;5024243;28;20202;-78
2021/12/05 00:46:16;;;;;;;4.57;2.70;;;;;;;;;;5021675;28;20200;-77
2021/12/05 00:52:23;;;;;;;7.65;3.53;;;;;;;;;;5049966;27;20248;-77
2021/12/05 00:55:10;;;;;;;6.57;3.40;;;;;;;;;;5025315;28;20543;-77
2021/12/05 00:57:56;;;;;;;6.60;2.30;;;;;;;;;;5016497;28;20228;-79
2021/12/05 01:03:40;;;;;;;3.20;2.78;;;;;;;;;;5020657;27;20218;-79
2021/12/05 01:06:47;;;;;;;4.25;2.72;;;;;;;;;;5023606;28;20200;-78
2021/12/05 01:12:18;;;;;;;8.32;2.97;;;;;;;;;;5027924;28;20195;-78
2021/12/05 01:17:31;;;;;;;4.18;2.30;;;;;;;;;;5020839;28;20243;-78
2021/12/05 01:20:01;;;;;;;4.53;2.47;;;;;;;;;;5026651;28;20199;-78
2021/12/05 01:22:31;;;;;;;6.78;2.03;;;;;;;;;;5037242;27;20219;-78
2021/12/05 01:25:05;;;;;;;4.45;2.97;;;;;;;;;;5039084;27;20209;-78
2021/12/05 01:27:40;;;;;;;3.95;2.45;;;;;;;;;;5024727;28;20203;-78
2021/12/05 01:30:13;;;;;;;6.43;2.17;;;;;;;;;;5025491;28;20246;-78
2021/12/05 01:32:53;;;;;;;4.50;2.40;;;;;;;;;;5027550;28;20204;-78
2021/12/05 01:35:34;;;;;;;5.53;1.88;;;;;;;;;;5016466;28;20581;-78
2021/12/05 01:38:08;;;;;;;3.65;1.80;;;;;;;;;;5099980;27;20223;-78
2021/12/05 01:57:34;;;;;;;3.83;2.10;;;;;;;;;;5027961;28;20292;-78
2021/12/05 02:00:29;;;;;;;6.35;2.70;;;;;;;;;;5024588;28;20299;-78
2021/12/05 02:07:43;;;;;;;3.85;2.22;;;;;;;;;;5038503;28;20537;-78
2021/12/05 02:31:14;;;;;;;4.25;2.95;;;;;;;;;;5024577;28;20233;-79
2021/12/05 02:34:00;;;;;;;3.80;2.20;;;;;;;;;;5058069;28;20200;-79
2021/12/05 02:39:26;;;;;;;4.25;1.83;;;;;;;;;;5022003;28;20211;-77
2021/12/05 02:41:54;;;;;;;4.60;1.90;;;;;;;;;;5021642;28;20566;-76
2021/12/05 02:44:24;;;;;;;5.13;2.28;;;;;;;;;;5026569;28;20633;-77
2021/12/05 02:46:57;;;;;;;6.03;2.10;;;;;;;;;;5023831;28;20218;-77
2021/12/05 02:49:25;;;;;;;6.40;2.15;;;;;;;;;;5101636;28;20185;-77
2021/12/05 02:51:56;;;;;;;1.92;1.60;;;;;;;;;;5007117;28;20644;-77
2021/12/05 02:54:25;;;;;;;5.32;1.90;;;;;;;;;;5043298;27;20279;-77
2021/12/05 02:56:52;;;;;;;3.95;2.22;;;;;;;;;;5026575;27;20552;-77
2021/12/05 02:59:24;;;;;;;4.10;1.60;;;;;;;;;;5028109;28;20227;-77
2021/12/05 03:01:56;;;;;;;2.75;1.92;;;;;;;;;;5025322;28;20298;-77
2021/12/05 03:04:26;;;;;;;3.10;2.03;;;;;;;;;;5012092;28;20222;-77
2021/12/05 03:06:54;;;;;;;6.60;2.45;;;;;;;;;;5095311;27;20188;-77
2021/12/05 03:09:22;;;;;;;7.88;1.85;;;;;;;;;;5031260;27;20197;-77
2021/12/05 03:11:51;;;;;;;4.32;2.10;;;;;;;;;;5010496;28;20203;-77
2021/12/05 03:14:18;;;;;;;5.10;2.28;;;;;;;;;;5013277;27;20678;-79
2021/12/05 03:16:46;;;;;;;3.55;1.85;;;;;;;;;;5029437;28;20195;-80
2021/12/05 03:19:13;;;;;;;3.05;1.45;;;;;;;;;;5025438;27;20216;-78
2021/12/05 03:21:41;;;;;;;6.28;2.35;;;;;;;;;;5134301;27;20202;-78
2021/12/05 03:24:09;;;;;;;3.70;2.17;;;;;;;;;;5063453;27;20667;-77
2021/12/05 03:26:38;;;;;;;6.45;2.08;;;;;;;;;;5086152;27;20219;-77
2021/12/05 03:29:09;;;;;;;2.75;1.73;;;;;;;;;;5051479;27;20642;-77
2021/12/05 03:31:36;;;;;;;5.25;2.15;;;;;;;;;;5027102;28;20214;-76
2021/12/05 03:34:04;;;;;;;3.95;2.13;;;;;;;;;;5040931;27;20203;-77
2021/12/05 03:36:31;;;;;;;6.80;2.65;;;;;;;;;;5070633;27;20203;-75
2021/12/05 03:38:58;;;;;;;3.30;2.25;;;;;;;;;;5070479;27;20564;-75
2021/12/05 03:41:25;;;;;;;5.63;1.90;;;;;;;;;;5018849;28;20196;-76
2021/12/05 03:43:55;;;;;;;3.17;1.60;;;;;;;;;;5033593;27;20195;-75
2021/12/05 03:46:24;;;;;;;2.63;1.58;;;;;;;;;;5030479;27;20222;-76
2021/12/05 03:48:52;;;;;;;3.60;2.13;;;;;;;;;;5010757;28;20207;-77
2021/12/05 03:51:22;;;;;;;5.70;1.75;;;;;;;;;;5044281;27;20195;-77
2021/12/05 03:53:49;;;;;;;2.75;1.77;;;;;;;;;;5074572;27;20204;-77
2021/12/05 03:56:17;;;;;;;4.30;2.17;;;;;;;;;;5029845;27;20214;-77
2021/12/05 03:58:45;;;;;;;3.15;1.50;;;;;;;;;;5019102;28;20705;-76
2021/12/05 04:01:12;;;;;;;4.03;1.98;;;;;;;;;;5036127;27;20658;-78
2021/12/05 04:03:42;;;;;;;3.70;1.40;;;;;;;;;;5030418;27;20200;-76
2021/12/05 04:06:10;;;;;;;3.83;2.13;;;;;;;;;;5018007;28;20200;-76
2021/12/05 04:08:39;;;;;;;4.30;1.55;;;;;;;;;;5009846;28;20192;-77
2021/12/05 04:11:09;;;;;;;9.23;2.25;;;;;;;;;;5052778;27;20241;-76
2021/12/05 04:13:36;;;;;;;5.70;2.03;;;;;;;;;;5032931;27;20199;-77
2021/12/05 04:16:05;;;;;;;4.00;2.08;;;;;;;;;;5022028;28;20200;-77
2021/12/05 04:18:32;;;;;;;5.78;1.92;;;;;;;;;;5116478;27;20710;-77
2021/12/05 04:21:01;;;;;;;7.85;2.08;;;;;;;;;;5087862;27;20553;-76
2021/12/05 04:23:28;;;;;;;2.67;1.95;;;;;;;;;;5041990;27;20197;-75
2021/12/05 04:25:56;;;;;;;4.50;2.00;;;;;;;;;;5026973;28;20199;-77
2021/12/05 04:28:24;;;;;;;6.25;1.98;;;;;;;;;;5027119;28;20646;-77
2021/12/05 04:30:52;;;;;;;6.70;2.03;;;;;;;;;;5041907;27;20578;-77
2021/12/05 04:33:19;;;;;;;3.72;1.75;;;;;;;;;;5100072;27;20196;-77
2021/12/05 04:35:46;;;;;;;8.15;2.40;;;;;;;;;;5028390;28;20380;-77
2021/12/05 04:38:15;;;;;;;7.00;2.05;;;;;;;;;;5021868;28;20212;-77
2021/12/05 04:40:42;;;;;;;12.32;3.35;;;;;;;;;;5031878;27;20208;-76
2021/12/05 04:43:09;;;;;;;3.08;2.20;;;;;;;;;;5051459;27;20199;-76
2021/12/05 04:45:37;;;;;;;6.00;2.10;;;;;;;;;;5024843;28;20201;-77
2021/12/05 04:48:05;;;;;;;9.00;2.08;;;;;;;;;;5028598;27;20203;-77
2021/12/05 04:50:33;;;;;;;5.45;2.35;;;;;;;;;;5024347;28;20219;-78
2021/12/05 04:53:01;;;;;;;4.10;2.10;;;;;;;;;;5113750;27;20211;-77
2021/12/05 04:55:29;;;;;;;6.65;1.60;;;;;;;;;;5022793;28;20204;-76
2021/12/05 04:57:56;;;;;;;2.75;2.05;;;;;;;;;;5025472;28;20208;-76
2021/12/05 05:00:25;;;;;;;4.18;1.63;;;;;;;;;;5030478;28;20704;-76
2021/12/05 05:02:53;;;;;;;2.53;1.90;;;;;;;;;;5008687;28;20265;-77
2021/12/05 05:05:21;;;;;;;3.58;1.70;;;;;;;;;;5020446;28;20215;-77
2021/12/05 05:07:48;;;;;;;2.20;1.25;;;;;;;;;;5013473;28;20221;-75
2021/12/05 05:10:16;;;;;;;8.45;1.70;;;;;;;;;;5027953;27;20203;-76
2021/12/05 05:12:45;;;;;;;3.53;1.95;;;;;;;;;;5027405;28;20195;-74
2021/12/05 05:15:14;;;;;;;4.18;2.58;;;;;;;;;;5027362;28;20561;-76
2021/12/05 05:17:42;;;;;;;1.70;1.25;;;;;;;;;;5008065;28;21095;-77
2021/12/05 05:20:20;;;;;;;3.67;1.70;;;;;;;;;;5010058;28;20234;-77
2021/12/05 05:23:00;;;;;;;6.15;1.70;;;;;;;;;;5048805;27;20538;-77
2021/12/05 05:39:37;;;;;;;5.25;2.60;;;;;;;;;;5019189;28;20702;-77
2021/12/05 05:45:04;;;;;;;3.72;1.60;;;;;;;;;;5014823;28;20199;-76
2021/12/05 05:47:37;;;;;;;5.90;1.83;;;;;;;;;;5009498;28;20210;-76
2021/12/05 05:50:04;;;;;;;6.10;1.70;;;;;;;;;;5022757;28;20253;-76
2021/12/05 05:52:32;;;;;;;6.25;1.40;;;;;;;;;;5055944;28;20223;-77
2021/12/05 05:54:59;;;;;;;2.30;1.48;;;;;;;;;;5022977;28;20654;-76
2021/12/05 05:57:31;;;;;;;6.47;1.50;;;;;;;;;;5016293;28;20328;-77
2021/12/05 06:00:06;;;;;;;2.58;1.48;;;;;;;;;;5042848;28;20288;-76
2021/12/05 06:05:18;;;;;;;4.93;1.58;;;;;;;;;;5023946;28;20241;-77
2021/12/05 06:07:46;;;;;;;1.50;0.95;;;;;;;;;;5025069;28;20570;-78
2021/12/05 06:10:14;;;;;;;4.30;1.40;;;;;;;;;;5053577;28;20335;-77
2021/12/05 06:12:41;;;;;;;5.15;1.73;;;;;;;;;;5027748;28;20227;-76
2021/12/05 06:15:12;;;;;;;4.07;1.30;;;;;;;;;;5026627;28;20659;-77
2021/12/05 06:17:39;;;;;;;5.30;1.55;;;;;;;;;;5028666;28;20291;-77
2021/12/05 06:20:07;;;;;;;3.70;1.20;;;;;;;;;;5025205;28;20223;-76
2021/12/05 06:22:34;;;;;;;3.25;1.73;;;;;;;;;;5066029;28;20205;-78
2021/12/05 06:25:02;;;;;;;2.42;1.10;;;;;;;;;;5019134;28;20706;-75
2021/12/05 06:27:30;;;;;;;3.70;1.05;;;;;;;;;;5025492;28;20757;-75
2021/12/05 06:30:06;;;;;;;2.75;1.55;;;;;;;;;;5027842;28;20203;-76
2021/12/05 06:36:51;;;;;;;4.18;2.42;;;;;;;;;;5034677;27;20646;-75
2021/12/05 06:38:36;;;;;;;2.45;1.15;;;;;;;;;;5029751;28;20222;-74
2021/12/05 06:41:11;;;;;;;1.77;1.30;;;;;;;;;;5030576;28;20196;-75
2021/12/05 06:46:23;;;;;;;2.72;1.48;;;;;;;;;;5009297;28;20204;-75
2021/12/05 06:48:52;;;;;;;2.55;1.10;;;;;;;;;;5033769;27;20195;-76
2021/12/05 06:51:20;;;;;;;3.15;1.00;;;;;;;;;;5024374;28;20200;-75
2021/12/05 06:53:47;;;;;;;3.05;1.58;;;;;;;;;;5025535;28;20192;-74
2021/12/05 06:56:15;;;;;;;1.73;1.40;;;;;;;;;;5022135;27;20216;-75
2021/12/05 06:58:42;;;;;;;4.20;1.42;;;;;;;;;;5041239;27;20745;-76
2021/12/05 07:01:10;;;;;;;4.57;1.23;;;;;;;;;;5025047;28;20212;-76
2021/12/05 07:03:40;;;;;;;2.90;1.30;;;;;;;;;;5010759;28;20835;-74
2021/12/05 07:06:10;;;;;;;3.15;1.10;;;;;;;;;;5025423;27;20207;-75
2021/12/05 07:08:40;;;;;;;3.13;1.15;;;;;;;;;;5024983;27;20200;-75
2021/12/05 07:11:13;;;;;;;2.45;1.38;;;;;;;;;;5030292;28;20192;-75
2021/12/05 07:16:30;;;;;;;1.85;1.10;;;;;;;;;;5023729;27;20567;-75
2021/12/05 07:19:19;;;;;;;1.40;1.20;;;;;;;;;;5014734;28;20226;-75
2021/12/05 07:21:52;;;;;;;2.40;1.38;;;;;;;;;;5027113;28;20662;-78
2021/12/05 07:24:34;;;;;;;3.30;1.30;;;;;;;;;;5068549;27;20706;-76
2021/12/05 07:40:55;;;;;;;1.65;1.15;;;;;;;;;;5049126;27;20230;-78
2021/12/05 07:43:22;;;;;;;2.13;1.13;;;;;;;;;;5027600;28;20212;-76
2021/12/05 07:45:52;;;;;;;3.50;1.27;;;;;;;;;;5037849;27;20202;-78
2021/12/05 07:48:23;;;;;;;2.55;1.20;;;;;;;;;;5029347;28;20658;-78
2021/12/05 07:50:57;;;;;;;1.30;0.90;;;;;;;;;;5028659;27;20199;-76
2021/12/05 07:53:31;;;;;;;3.80;1.17;;;;;;;;;;5025792;28;20219;-76
2021/12/05 07:56:08;;;;;;;4.85;1.20;;;;;;;;;;5041354;27;20249;-77
2021/12/05 07:58:53;;;;;;;1.00;0.80;;;;;;;;;;5028777;28;20218;-76
2021/12/05 08:14:23;;;;;;;3.97;1.30;;;;;;;;;;5053026;27;20274;-76
2021/12/05 08:15:32;;;;;;;4.32;1.20;;;;;;;;;;5029192;28;20677;-75
2021/12/05 08:17:59;;;;;;;4.47;1.40;;;;;;;;;;5020392;28;20196;-75
2021/12/05 08:20:27;;;;;;;2.63;1.20;;;;;;;;;;5029138;27;20228;-75
2021/12/05 08:22:55;;;;;;;2.45;1.15;;;;;;;;;;5027270;28;20191;-75
2021/12/05 08:25:26;;;;;;;4.10;1.25;;;;;;;;;;5009317;28;20208;-75
2021/12/05 08:27:59;;;;;;;2.97;1.30;;;;;;;;;;5020106;28;20252;-75
2021/12/05 08:30:31;;;;;;;2.38;1.60;;;;;;;;;;5061973;27;20200;-77
2021/12/05 08:33:18;;;;;;;5.00;1.23;;;;;;;;;;5075156;27;20206;-77
2021/12/05 09:20:51;;;;;;;4.60;1.30;;;;;;;;;;5122646;28;20207;-75
2021/12/05 09:26:24;;;;;;;1.67;1.58;;;;;;;;;;5125364;27;20219;-76
2021/12/05 09:40:16;;;;;;;2.45;1.67;;;;;;;;;;5120668;28;20325;-75
2021/12/05 10:02:36;;;;;;;3.25;1.60;;;;;;;;;;5092986;27;20407;-75
2021/12/05 10:08:15;;;;;;;1.65;1.55;;;;;;;;;;5098858;28;20655;-77
2021/12/05 10:10:55;;;;;;;2.22;1.80;;;;;;;;;;5095026;28;20219;-75
2021/12/05 10:13:29;;;;;;;4.10;1.35;;;;;;;;;;5093987;28;20657;-75
2021/12/05 10:16:12;;;;;;;1.73;1.45;;;;;;;;;;5110166;28;20188;-76
2021/12/05 10:19:10;;;;;;;1.83;1.60;;;;;;;;;;5104802;28;20220;-78
2021/12/05 10:27:24;;;;;;;4.70;2.17;;;;;;;;;;5104717;28;20786;-77
2021/12/05 10:35:43;;;;;;;2.47;1.70;;;;;;;;;;5108143;28;20241;-76
2021/12/05 10:38:14;;;;;;;4.07;1.75;;;;;;;;;;5111330;28;20469;-76
2021/12/05 10:40:46;;;;;;;2.15;1.48;;;;;;;;;;5110206;28;20254;-75
2021/12/05 10:46:19;;;;;;;3.10;1.40;;;;;;;;;;5093748;28;20745;-77
2021/12/05 10:48:47;;;;;;;2.22;1.77;;;;;;;;;;5103763;28;20541;-76
2021/12/05 10:51:15;;;;;;;2.10;1.58;;;;;;;;;;5109162;28;20200;-76
2021/12/05 10:53:43;;;;;;;2.35;1.67;;;;;;;;;;5108144;28;20648;-76
2021/12/05 10:56:16;;;;;;;2.22;1.30;;;;;;;;;;5106175;28;20553;-78
2021/12/05 10:58:45;;;;;;;3.47;1.40;;;;;;;;;;5111403;28;20658;-77
2021/12/05 11:01:20;;;;;;;4.80;1.60;;;;;;;;;;5102658;28;20208;-76
2021/12/05 11:03:48;;;;;;;5.47;1.63;;;;;;;;;;5102654;28;20196;-75
2021/12/05 11:06:23;;;;;;;2.42;1.60;;;;;;;;;;5102228;28;20217;-77
2021/12/05 11:08:53;;;;;;;3.22;1.77;;;;;;;;;;5091918;28;20196;-76
2021/12/05 11:11:20;;;;;;;1.73;1.40;;;;;;;;;;5102160;28;20190;-77
2021/12/05 11:13:48;;;;;;;3.20;1.50;;;;;;;;;;5109874;28;20201;-76
2021/12/05 11:16:36;;;;;;;2.40;1.27;;;;;;;;;;5109373;28;20267;-77
2021/12/05 11:19:08;;;;;;;1.65;1.48;;;;;;;;;;5101042;28;20209;-76
2021/12/05 11:21:38;;;;;;;2.30;1.55;;;;;;;;;;5109179;28;20193;-76
2021/12/05 11:24:06;;;;;;;4.13;2.08;;;;;;;;;;5111904;28;20414;-76
2021/12/05 11:26:34;;;;;;;1.25;1.15;;;;;;;;;;5106059;28;20687;-76
2021/12/05 11:29:01;;;;;;;4.32;1.52;;;;;;;;;;5108314;28;20223;-76
2021/12/05 11:31:30;;;;;;;3.28;2.38;;;;;;;;;;5103845;28;20212;-75
2021/12/05 11:33:58;;;;;;;2.85;1.42;;;;;;;;;;5109172;28;20671;-76
2021/12/05 11:36:26;;;;;;;3.95;1.40;;;;;;;;;;5111029;28;20280;-78
2021/12/05 11:38:53;;;;;;;1.20;1.10;;;;;;;;;;5112152;28;20656;-75
2021/12/05 11:41:22;;;;;;;2.88;1.85;;;;;;;;;;5100453;28;20189;-75
2021/12/05 11:43:52;;;;;;;1.25;1.10;;;;;;;;;;5103857;28;20349;-74
2021/12/05 11:46:20;;;;;;;2.17;1.30;;;;;;;;;;5102164;28;20245;-76
2021/12/05 11:48:49;;;;;;;5.72;1.70;;;;;;;;;;5108115;28;20307;-74
2021/12/05 11:51:27;;;;;;;2.20;1.40;;;;;;;;;;5102346;28;20212;-75
2021/12/05 11:53:55;;;;;;;1.30;1.20;;;;;;;;;;5108161;28;20280;-76
2021/12/05 11:56:24;;;;;;;2.47;1.38;;;;;;;;;;5109311;28;20200;-76
2021/12/05 11:59:10;;;;;;;1.52;1.20;;;;;;;;;;5105001;28;20668;-75
2021/12/05 12:01:38;;;;;;;2.10;1.33;;;;;;;;;;5100148;28;20201;-76
2021/12/05 12:04:06;;;;;;;3.00;1.92;;;;;;;;;;5107878;28;20204;-76
2021/12/05 12:06:35;;;;;;;2.20;1.15;;;;;;;;;;5101217;28;20700;-75
2021/12/05 12:09:02;;;;;;;2.10;1.60;;;;;;;;;;5107794;28;20196;-74
2021/12/05 12:11:29;;;;;;;2.20;1.48;;;;;;;;;;5105434;28;20193;-75
2021/12/05 12:13:56;;;;;;;1.90;1.55;;;;;;;;;;5100619;28;20197;-75
2021/12/05 12:16:24;;;;;;;2.65;1.40;;;;;;;;;;5108252;28;20197;-77
2021/12/05 12:18:52;;;;;;;2.78;1.35;;;;;;;;;;5105503;27;20279;-76
2021/12/05 12:21:20;;;;;;;1.50;1.15;;;;;;;;;;5107592;28;20201;-75
2021/12/05 12:23:50;;;;;;;1.92;1.33;;;;;;;;;;5109344;28;20220;-76
2021/12/05 12:26:17;;;;;;;2.75;1.30;;;;;;;;;;5100965;28;20219;-78
2021/12/05 12:28:44;;;;;;;4.43;1.60;;;;;;;;;;5109062;28;20212;-77
2021/12/05 12:31:13;;;;;;;3.35;1.35;;;;;;;;;;5108733;28;20192;-77
2021/12/05 12:33:42;;;;;;;1.90;1.20;;;;;;;;;;5111127;28;20199;-76
2021/12/05 12:36:10;;;;;;;2.85;1.30;;;;;;;;;;5108629;28;20193;-76
2021/12/05 12:38:38;;;;;;;1.20;1.00;;;;;;;;;;5105725;28;20195;-76
2021/12/05 12:41:13;;;;;;;2.00;1.30;;;;;;;;;;5099256;28;20189;-76
2021/12/05 12:43:42;;;;;;;1.25;1.15;;;;;;;;;;5105391;28;20192;-77
2021/12/05 12:46:23;;;;;;;2.20;1.27;;;;;;;;;;5102697;28;20213;-75
2021/12/05 12:48:52;;;;;;;2.55;1.30;;;;;;;;;;5108268;28;20197;-76
2021/12/05 12:51:26;;;;;;;1.92;1.25;;;;;;;;;;5094910;28;20193;-75
2021/12/05 12:53:55;;;;;;;2.53;1.42;;;;;;;;;;5109221;28;20192;-77
2021/12/05 12:56:24;;;;;;;1.80;1.10;;;;;;;;;;5103798;28;20197;-76
2021/12/05 12:58:54;;;;;;;1.25;1.15;;;;;;;;;;5101984;28;20190;-76
2021/12/05 13:01:38;;;;;;;1.33;1.05;;;;;;;;;;5101219;28;20199;-75
2021/12/05 13:12:33;;;;;;;1.50;1.30;;;;;;;;;;5097913;28;20707;-75
2021/12/05 13:15:08;;;;;;;1.60;1.13;;;;;;;;;;5109833;28;20534;-75
2021/12/05 13:17:39;;;;;;;1.40;1.15;;;;;;;;;;5104576;28;20656;-75
2021/12/05 13:20:06;;;;;;;1.20;1.00;;;;;;;;;;5096972;28;20208;-77
2021/12/05 13:22:33;;;;;;;1.50;1.25;;;;;;;;;;5108287;28;20223;-76
2021/12/05 13:25:06;;;;;;;2.33;1.08;;;;;;;;;;5097078;28;20198;-77
2021/12/05 13:27:36;;;;;;;1.52;1.20;;;;;;;;;;5105210;28;20316;-79
2021/12/05 13:30:05;;;;;;;1.40;1.10;;;;;;;;;;5094359;28;20213;-76
2021/12/05 13:32:34;;;;;;;2.05;1.40;;;;;;;;;;5100546;28;20576;-74
2021/12/05 13:35:02;;;;;;;3.70;1.42;;;;;;;;;;5113043;28;20197;-76
2021/12/05 13:37:37;;;;;;;2.45;1.30;;;;;;;;;;5113155;28;20196;-75
2021/12/05 13:40:07;;;;;;;9.23;2.20;;;;;;;;;;5091358;28;20276;-77
2021/12/05 13:42:46;;;;;;;3.33;1.70;;;;;;;;;;5110715;28;20656;-77
2021/12/05 13:45:16;;;;;;;1.90;1.75;;;;;;;;;;5108574;28;20243;-78
2021/12/05 13:47:45;;;;;;;5.80;1.85;;;;;;;;;;5104984;28;20818;-76
2021/12/05 13:50:26;;;;;;;2.53;1.63;;;;;;;;;;5112659;28;20256;-76
2021/12/05 13:52:56;;;;;;;1.30;1.20;;;;;;;;;;5113428;28;20624;-76
2021/12/05 13:55:34;;;;;;;2.15;1.48;;;;;;;;;;5109446;28;20194;-77
2021/12/05 13:58:19;;;;;;;2.00;1.80;;;;;;;;;;5096645;28;20242;-76
2021/12/05 14:00:49;;;;;;;3.00;1.42;;;;;;;;;;5102984;27;20227;-76
2021/12/05 14:03:36;;;;;;;3.53;1.30;;;;;;;;;;5112322;28;20197;-76
2021/12/05 14:06:04;;;;;;;2.75;1.70;;;;;;;;;;5106551;28;20688;-77
2021/12/05 14:08:31;;;;;;;1.33;1.23;;;;;;;;;;5112103;28;20623;-76
2021/12/05 14:10:59;;;;;;;1.85;1.50;;;;;;;;;;5113778;28;20206;-76
2021/12/05 14:13:26;;;;;;;2.72;1.92;;;;;;;;;;5113021;28;20193;-76
2021/12/05 14:15:57;;;;;;;2.78;1.75;;;;;;;;;;5108378;27;20201;-76
2021/12/05 14:18:24;;;;;;;2.45;1.80;;;;;;;;;;5104922;27;20193;-76
2021/12/05 14:20:51;;;;;;;4.38;1.80;;;;;;;;;;5101007;28;20260;-76
2021/12/05 14:23:22;;;;;;;2.65;2.00;;;;;;;;;;5093539;28;20200;-75
2021/12/05 14:25:50;;;;;;;2.42;2.05;;;;;;;;;;5093363;28;20201;-76
2021/12/05 14:28:17;;;;;;;2.95;1.70;;;;;;;;;;5093350;28;20208;-75
2021/12/05 14:30:45;;;;;;;2.30;1.33;;;;;;;;;;5093772;28;20671;-75
2021/12/05 14:33:12;;;;;;;2.40;1.88;;;;;;;;;;5093576;28;20289;-76
2021/12/05 14:35:40;;;;;;;3.00;1.92;;;;;;;;;;5108264;27;20197;-76
2021/12/05 14:38:08;;;;;;;1.63;1.52;;;;;;;;;;5108802;28;20215;-75
2021/12/05 14:40:37;;;;;;;2.17;1.80;;;;;;;;;;5113089;28;20291;-75
2021/12/05 14:43:06;;;;;;;4.90;2.45;;;;;;;;;;5107967;28;20199;-76
2021/12/05 14:45:36;;;;;;;6.35;2.70;;;;;;;;;;5105405;28;20214;-75
2021/12/05 14:48:04;;;;;;;7.95;2.47;;;;;;;;;;5108776;28;20311;-77
2021/12/05 14:50:33;;;;;;;1.80;1.50;;;;;;;;;;5111811;28;20250;-76
2021/12/05 14:53:03;;;;;;;2.45;1.83;;;;;;;;;;5108392;28;20717;-75
2021/12/05 14:55:31;;;;;;;1.92;1.52;;;;;;;;;;5106486;28;20224;-77
2021/12/05 14:58:01;;;;;;;2.55;2.28;;;;;;;;;;5112082;28;20200;-76
2021/12/05 15:00:29;;;;;;;2.78;2.10;;;;;;;;;;5109887;27;20232;-77
2021/12/05 15:03:00;;;;;;;2.47;1.65;;;;;;;;;;5108025;28;20197;-75
2021/12/05 15:05:27;;;;;;;3.00;2.00;;;;;;;;;;5112646;28;20568;-75
2021/12/05 15:08:00;;;;;;;4.00;1.90;;;;;;;;;;5112451;28;20243;-76
2021/12/05 15:10:27;;;;;;;3.40;2.25;;;;;;;;;;5110676;28;20201;-75
2021/12/05 15:12:55;;;;;;;3.38;2.50;;;;;;;;;;5109644;28;20193;-76
2021/12/05 15:15:24;;;;;;;3.70;2.40;;;;;;;;;;5110856;28;20196;-76
2021/12/05 15:17:52;;;;;;;2.90;2.13;;;;;;;;;;5110250;28;20193;-75
2021/12/05 15:20:20;;;;;;;3.20;2.40;;;;;;;;;;5094855;28;20637;-76
2021/12/05 15:22:48;;;;;;;4.32;2.28;;;;;;;;;;5112174;28;20217;-76
2021/12/05 15:25:17;;;;;;;3.47;2.22;;;;;;;;;;5108504;28;20192;-75
2021/12/05 15:27:44;;;;;;;2.58;2.35;;;;;;;;;;5101433;28;20209;-76
2021/12/05 15:30:13;;;;;;;3.47;2.00;;;;;;;;;;5105947;28;20625;-75
2021/12/05 15:32:43;;;;;;;4.07;2.08;;;;;;;;;;5102336;28;20194;-75
2021/12/05 15:35:12;;;;;;;2.45;2.25;;;;;;;;;;5106933;28;20192;-75
2021/12/05 15:37:39;;;;;;;3.80;2.15;;;;;;;;;;5103088;28;20667;-77
2021/12/05 15:40:07;;;;;;;6.53;3.30;;;;;;;;;;5100361;28;20204;-77
2021/12/05 15:42:36;;;;;;;2.97;2.17;;;;;;;;;;5109745;28;20189;-76
2021/12/05 15:45:05;;;;;;;3.08;2.22;;;;;;;;;;5112062;28;20657;-77
2021/12/05 15:47:34;;;;;;;2.67;2.47;;;;;;;;;;5106096;28;20217;-76
2021/12/05 15:50:07;;;;;;;10.68;7.32;;;;;;;;;;5105947;28;20969;-76
2021/12/05 15:52:36;;;;;;;6.43;5.70;;;;;;;;;;5109217;28;20188;-77
2021/12/05 15:55:05;;;;;;;8.23;6.72;;;;;;;;;;5101818;28;20447;-77
2021/12/05 15:57:34;;;;;;;7.40;5.95;;;;;;;;;;5108814;28;20216;-78
2021/12/05 16:00:05;;;;;;;6.50;5.57;;;;;;;;;;5106215;28;20339;-76
2021/12/05 16:02:32;;;;;;;6.88;5.68;;;;;;;;;;5107459;28;20644;-75
2021/12/05 16:04:59;;;;;;;10.75;6.63;;;;;;;;;;5109100;28;20598;-77
2021/12/05 16:07:29;;;;;;;8.50;7.00;;;;;;;;;;5106526;28;20221;-76
2021/12/05 16:10:08;;;;;;;14.38;9.93;;;;;;;;;;5100546;28;20201;-76
2021/12/05 16:12:38;;;;;;;9.68;8.68;;;;;;;;;;5104583;28;20220;-76
2021/12/05 16:15:05;;;;;;;8.50;7.40;;;;;;;;;;5102426;28;20202;-76
2021/12/05 16:17:33;;;;;;;8.32;6.05;;;;;;;;;;5107303;27;20193;-75
2021/12/05 16:20:21;;;;;;;21.35;11.25;;;;;;;;;;5110633;27;20740;-77
2021/12/05 16:23:06;;;;;;;13.52;8.98;;;;;;;;;;5093455;28;20207;-76
2021/12/05 16:25:34;;;;;;;10.77;7.63;;;;;;;;;;5103651;28;20199;-75
2021/12/05 16:28:02;;;;;;;9.57;7.20;;;;;;;;;;5103872;28;20224;-76
2021/12/05 16:30:32;;;;;;;13.90;9.40;;;;;;;;;;5103534;28;20284;-76
2021/12/05 16:32:59;;;;;;;31.92;14.82;;;;;;;;;;5107439;28;20197;-75
2021/12/05 16:35:31;;;;;;;27.67;12.05;;;;;;;;;;5102567;28;20659;-77
2021/12/05 16:37:59;;;;;;;9.00;7.07;;;;;;;;;;5102141;28;20208;-77
2021/12/05 16:40:27;;;;;;;12.88;8.40;;;;;;;;;;5103822;28;20212;-76
2021/12/05 16:43:08;;;;;;;13.35;9.55;;;;;;;;;;5107592;28;20204;-76
2021/12/05 16:45:35;;;;;;;10.85;8.45;;;;;;;;;;5095368;28;20250;-76
2021/12/05 16:48:03;;;;;;;12.05;8.90;;;;;;;;;;5102402;28;20221;-76
2021/12/05 16:50:30;;;;;;;14.20;9.30;;;;;;;;;;5110767;28;20659;-75
2021/12/05 16:52:58;;;;;;;13.68;7.93;;;;;;;;;;5111152;28;20227;-76
2021/12/05 16:55:30;;;;;;;11.07;7.32;;;;;;;;;;5107318;28;20198;-75
2021/12/05 16:58:06;;;;;;;13.65;8.80;;;;;;;;;;5106244;28;20250;-76
2021/12/05 17:00:37;;;;;;;10.13;6.90;;;;;;;;;;5103817;28;21574;-76
2021/12/05 17:03:05;;;;;;;14.70;9.32;;;;;;;;;;5105419;28;20196;-75
2021/12/05 17:05:33;;;;;;;9.02;8.05;;;;;;;;;;5110908;28;20193;-76
2021/12/05 17:08:07;;;;;;;15.23;8.90;;;;;;;;;;5112159;28;20226;-76
2021/12/05 17:10:40;;;;;;;11.15;8.02;;;;;;;;;;5107237;28;20486;-75
2021/12/05 17:13:14;;;;;;;14.82;9.35;;;;;;;;;;5110027;28;20193;-76
2021/12/05 17:15:46;;;;;;;9.32;6.90;;;;;;;;;;5109156;28;20197;-76
2021/12/05 17:18:17;;;;;;;10.13;6.35;;;;;;;;;;5114419;28;20193;-76
2021/12/05 17:20:47;;;;;;;12.02;7.95;;;;;;;;;;5114202;28;20197;-76
2021/12/05 17:23:15;;;;;;;10.02;6.90;;;;;;;;;;5113038;28;20189;-76
2021/12/05 17:25:43;;;;;;;7.97;5.85;;;;;;;;;;5106772;28;20560;-77
2021/12/05 17:28:11;;;;;;;10.88;6.40;;;;;;;;;;5102779;28;20587;-76
2021/12/05 17:30:50;;;;;;;8.23;6.35;;;;;;;;;;5107263;28;20485;-75
2021/12/05 17:33:25;;;;;;;10.65;7.05;;;;;;;;;;5109451;28;20672;-77
2021/12/05 17:35:52;;;;;;;12.73;10.25;;;;;;;;;;5102816;28;20192;-77
2021/12/05 17:38:31;;;;;;;14.43;10.02;;;;;;;;;;5100458;28;20189;-76
2021/12/05 17:40:58;;;;;;;13.38;10.10;;;;;;;;;;5097514;28;20200;-76
2021/12/05 17:43:25;;;;;;;11.35;8.68;;;;;;;;;;5110548;28;20454;-76
2021/12/05 17:45:53;;;;;;;10.00;7.13;;;;;;;;;;5108833;28;20669;-76
2021/12/05 17:48:21;;;;;;;7.68;6.28;;;;;;;;;;5113516;28;20220;-76
2021/12/05 17:50:52;;;;;;;11.07;5.45;;;;;;;;;;5093493;28;20684;-76
2021/12/05 17:53:19;;;;;;;6.93;6.20;;;;;;;;;;5096579;28;20197;-76
2021/12/05 17:55:48;;;;;;;9.90;6.65;;;;;;;;;;5110896;28;20567;-76
2021/12/05 17:58:36;;;;;;;9.52;6.95;;;;;;;;;;5106561;28;20280;-77
2021/12/05 18:03:46;;;;;;;10.05;6.60;;;;;;;;;;5084602;28;20201;-77
2021/12/05 18:06:13;;;;;;;5.88;5.18;;;;;;;;;;5106477;28;20200;-76
2021/12/05 18:08:41;;;;;;;7.75;6.72;;;;;;;;;;5112211;28;20239;-76
2021/12/05 18:11:12;;;;;;;4.75;4.32;;;;;;;;;;5112806;28;20275;-76
2021/12/05 18:13:40;;;;;;;7.07;6.10;;;;;;;;;;5104797;28;20188;-76
2021/12/05 18:16:15;;;;;;;7.07;6.00;;;;;;;;;;5093280;28;20201;-76
2021/12/05 18:18:44;;;;;;;11.98;6.70;;;;;;;;;;5104019;28;20192;-76
2021/12/05 18:21:12;;;;;;;6.10;5.45;;;;;;;;;;5093958;28;20285;-76
2021/12/05 18:23:39;;;;;;;10.05;8.50;;;;;;;;;;5101281;28;20698;-76
2021/12/05 18:26:07;;;;;;;12.55;10.20;;;;;;;;;;5100881;28;20203;-75
2021/12/05 18:28:35;;;;;;;11.13;8.65;;;;;;;;;;5107066;28;20573;-76
2021/12/05 18:31:02;;;;;;;10.23;7.60;;;;;;;;;;5108493;28;20256;-76
2021/12/05 18:33:30;;;;;;;16.67;9.88;;;;;;;;;;5097104;28;20200;-75
2021/12/05 18:35:58;;;;;;;11.73;8.00;;;;;;;;;;5101692;27;20612;-75
2021/12/05 18:38:25;;;;;;;11.60;8.27;;;;;;;;;;5103370;28;20202;-75
2021/12/05 18:40:56;;;;;;;10.93;7.40;;;;;;;;;;5112469;28;20220;-75
2021/12/05 18:43:27;;;;;;;7.97;7.13;;;;;;;;;;5108160;28;20639;-76
2021/12/05 18:45:55;;;;;;;9.57;7.13;;;;;;;;;;5104013;28;20308;-77
2021/12/05 18:48:22;;;;;;;11.13;7.88;;;;;;;;;;5100000;28;20217;-76
2021/12/05 18:50:51;;;;;;;9.65;7.72;;;;;;;;;;5113260;28;20200;-76
2021/12/05 18:53:18;;;;;;;13.43;8.52;;;;;;;;;;5113409;28;20564;-76
2021/12/05 18:55:46;;;;;;;21.20;9.13;;;;;;;;;;5101145;28;20192;-75
2021/12/05 18:58:13;;;;;;;9.88;7.18;;;;;;;;;;5107421;28;20197;-76
2021/12/05 19:04:22;;;;;;;17.85;12.25;;;;;;;;;;5098029;27;20312;-77
2021/12/05 19:06:21;;;;;;;16.20;12.20;;;;;;;;;;5103430;28;20200;-76
2021/12/05 19:11:45;;;;;;;11.82;9.60;;;;;;;;;;5084704;27;20534;-75
2021/12/05 19:14:13;;;;;;;12.90;10.68;;;;;;;;;;5084799;28;20197;-75